Accueil
METAR-TAF:

METAR-TAF

Aéroports :

Lewiston-Nez Perce County Airport

Lewiston, Idaho, États-Unis

latitude: 46-22-29N, longitude: 117-00-52W, altitude: 438 m

Observation

Le bulletin a été fait il y a 1 heure et 7 minutes, à 08:56 UTC
Vent calme
Température 20°C
Humidité 37%
Pression 1017 hPa
Visibilité: 16.1 km
Ciel clair

METAR: KLWS 190856Z AUTO 00000KT 10SM CLR 20/05 A3004 RMK AO2 SLP161 T02000050 58002

Heure: 03:03 (10:03 UTC)

Prévision

Le bulletin a été fait il y a 4 heures et 38 minutes, à 05:25 UTC
Prévision valable du 19 à 06 UTC au 20 à 06 UTC
Vent 5 kt de sud/sud-est
Visibilité: 10 km
Ciel clair
A partir de 19 à 1700 UTC
Vent 5 kt de nord-ouest
Visibilité: 10 km
Ciel clair
A partir de 20 à 0300 UTC
Vent 4 kt de ouest/sud-ouest
Visibilité: 9.7 km
Ciel clair
fumée

TAF: KLWS 190525Z 1906/2006 16005KT P6SM SKC FM191700 32005KT P6SM SKC FM200300 24004KT 6SM FU SKC

Observations et prévisions météorologiques de plus de 4000 aéroports (messages METAR et TAF).

Les stations disponibles sont représentées par des disques jaunes et rouges sur la carte.

Passer la souris dessus pour voir le nom de la station.

Cliquer dessus pour voir les observations et prévisions météorologiques.

Pour changer de carte: cliquez sur les boutons verts avec une croix noire pour zoomer, sur le bouton vert avec un tiret pour effectuer un zoom arrière, ou sur les flèches vertes pour les cartes adjacentes.


METAR-TAF: